Time;durP1;ratioP1;P1;durP2;ratioP2;P2;SDS_P1;SDS_P2;PMS_P1;PMS_P2;Temp;Humidity;BMP_temperature;BMP_pressure;BME280_temperature;BME280_humidity;BME280_pressure;Samples;Min_cycle;Max_cycle;Signal;HPM_P1;HPM_P2
2024/03/28 00:00:46;;;;;;;40.95;9.88;;;;;;;;;;4992651;28;20448;-80
2024/03/28 00:03:12;;;;;;;29.17;8.95;;;;;;;;;;4997469;28;20034;-80
2024/03/28 00:05:38;;;;;;;22.75;8.98;;;;;;;;;;4996724;28;20483;-79
2024/03/28 00:08:04;;;;;;;26.95;9.18;;;;;;;;;;4993700;28;20076;-79
2024/03/28 00:10:30;;;;;;;22.05;8.70;;;;;;;;;;4995912;28;20053;-80
2024/03/28 00:12:56;;;;;;;15.05;7.63;;;;;;;;;;4980354;28;20034;-81
2024/03/28 00:15:22;;;;;;;14.02;7.85;;;;;;;;;;4997267;28;20061;-80
2024/03/28 00:17:48;;;;;;;16.15;8.05;;;;;;;;;;4994891;28;20042;-79
2024/03/28 00:20:14;;;;;;;23.52;8.77;;;;;;;;;;4993997;28;20262;-80
2024/03/28 00:22:40;;;;;;;14.85;8.07;;;;;;;;;;4997166;28;20042;-80
2024/03/28 00:25:06;;;;;;;25.48;8.38;;;;;;;;;;4979498;28;20030;-81
2024/03/28 00:27:32;;;;;;;15.25;7.75;;;;;;;;;;4998064;28;20117;-81
2024/03/28 00:29:58;;;;;;;19.25;8.73;;;;;;;;;;4995297;28;20038;-80
2024/03/28 00:32:27;;;;;;;13.88;7.80;;;;;;;;;;4994580;28;20085;-80
2024/03/28 00:34:53;;;;;;;25.20;8.73;;;;;;;;;;4992905;28;20061;-79
2024/03/28 00:37:19;;;;;;;17.55;7.95;;;;;;;;;;4993723;28;20132;-80
2024/03/28 00:39:48;;;;;;;18.60;7.90;;;;;;;;;;4995798;28;20047;-80
2024/03/28 00:42:14;;;;;;;20.77;9.15;;;;;;;;;;4993028;28;20499;-80
2024/03/28 00:44:40;;;;;;;23.60;9.57;;;;;;;;;;4994424;28;20045;-80
2024/03/28 00:47:06;;;;;;;16.65;7.82;;;;;;;;;;4992116;28;20050;-79
2024/03/28 00:49:32;;;;;;;21.25;8.40;;;;;;;;;;4991840;28;20054;-81
2024/03/28 00:51:58;;;;;;;18.63;8.23;;;;;;;;;;4993026;28;20038;-80
2024/03/28 00:54:23;;;;;;;19.42;9.43;;;;;;;;;;4999624;28;20056;-78
2024/03/28 00:56:49;;;;;;;23.38;9.27;;;;;;;;;;4975185;28;20463;-80
2024/03/28 00:59:15;;;;;;;17.80;9.43;;;;;;;;;;4992178;28;20038;-80
2024/03/28 01:01:41;;;;;;;28.00;10.32;;;;;;;;;;4991956;28;20038;-80
2024/03/28 01:04:07;;;;;;;25.38;8.98;;;;;;;;;;4992659;28;20034;-78
2024/03/28 01:06:33;;;;;;;26.08;9.30;;;;;;;;;;4991364;28;20042;-80
2024/03/28 01:08:59;;;;;;;35.38;10.32;;;;;;;;;;4996498;28;20384;-80
2024/03/28 01:11:25;;;;;;;27.55;9.25;;;;;;;;;;4996298;28;20044;-80
2024/03/28 01:13:51;;;;;;;11.45;8.10;;;;;;;;;;4994833;28;20108;-80
2024/03/28 01:16:16;;;;;;;24.13;8.50;;;;;;;;;;4991847;28;20034;-79
2024/03/28 01:18:43;;;;;;;21.77;8.57;;;;;;;;;;4990840;28;20038;-80
2024/03/28 01:21:09;;;;;;;17.88;8.93;;;;;;;;;;4992898;28;20476;-81
2024/03/28 01:23:36;;;;;;;23.83;8.65;;;;;;;;;;4995736;28;20121;-80
2024/03/28 01:26:02;;;;;;;24.80;8.77;;;;;;;;;;4994149;28;20034;-81
2024/03/28 01:28:28;;;;;;;14.65;8.23;;;;;;;;;;4993877;28;20062;-80
2024/03/28 01:31:04;;;;;;;18.65;8.80;;;;;;;;;;4995148;28;20037;-80
2024/03/28 01:33:31;;;;;;;29.27;9.57;;;;;;;;;;4994140;28;20034;-79
2024/03/28 01:35:57;;;;;;;18.40;9.35;;;;;;;;;;4993165;28;20467;-80
2024/03/28 01:38:23;;;;;;;18.02;9.68;;;;;;;;;;4976337;28;20034;-78
2024/03/28 01:40:50;;;;;;;25.30;10.13;;;;;;;;;;4992250;28;20046;-80
2024/03/28 01:43:16;;;;;;;22.05;9.45;;;;;;;;;;4977916;28;20034;-80
2024/03/28 01:45:42;;;;;;;20.83;9.68;;;;;;;;;;4994769;28;20462;-80
2024/03/28 01:48:08;;;;;;;22.38;10.20;;;;;;;;;;4979154;28;20033;-80
2024/03/28 01:50:34;;;;;;;28.00;11.50;;;;;;;;;;4999297;28;20055;-81
2024/03/28 01:53:00;;;;;;;22.52;10.68;;;;;;;;;;4995361;28;20065;-79
2024/03/28 01:55:25;;;;;;;21.55;9.68;;;;;;;;;;4990526;28;20080;-80
2024/03/28 01:57:52;;;;;;;18.60;9.18;;;;;;;;;;4975277;28;20034;-79
2024/03/28 02:00:18;;;;;;;26.20;9.95;;;;;;;;;;4975426;28;20138;-79
2024/03/28 02:02:44;;;;;;;26.27;9.23;;;;;;;;;;4991679;28;20421;-79
2024/03/28 02:05:11;;;;;;;20.02;8.68;;;;;;;;;;4990752;28;20030;-79
2024/03/28 02:07:37;;;;;;;22.25;9.60;;;;;;;;;;4991581;28;20042;-78
2024/03/28 02:10:03;;;;;;;28.95;12.93;;;;;;;;;;4992043;28;20045;-76
2024/03/28 02:12:31;;;;;;;27.75;10.35;;;;;;;;;;4992805;28;20077;-78
2024/03/28 02:14:58;;;;;;;18.73;8.07;;;;;;;;;;4992436;28;20037;-79
2024/03/28 02:17:23;;;;;;;17.02;8.88;;;;;;;;;;4992994;28;20034;-78
2024/03/28 02:19:49;;;;;;;16.85;8.13;;;;;;;;;;4992294;28;20042;-79
2024/03/28 02:22:15;;;;;;;13.82;7.35;;;;;;;;;;4992253;28;20042;-79
2024/03/28 02:24:41;;;;;;;19.13;7.40;;;;;;;;;;4993035;28;20037;-80
2024/03/28 02:27:07;;;;;;;10.85;7.70;;;;;;;;;;4994199;28;20042;-80
2024/03/28 02:29:33;;;;;;;25.25;9.45;;;;;;;;;;4996974;28;20034;-78
2024/03/28 02:31:59;;;;;;;20.80;9.18;;;;;;;;;;4994869;28;20046;-80
2024/03/28 02:34:25;;;;;;;23.88;8.70;;;;;;;;;;4963509;28;20031;-81
2024/03/28 02:36:51;;;;;;;26.58;9.82;;;;;;;;;;4997796;28;20046;-82
2024/03/28 02:39:17;;;;;;;12.73;6.85;;;;;;;;;;5001815;28;20510;-81
2024/03/28 02:41:43;;;;;;;19.80;10.10;;;;;;;;;;4997941;28;20038;-78
2024/03/28 02:44:09;;;;;;;23.95;11.43;;;;;;;;;;4999647;28;20438;-81
2024/03/28 02:46:35;;;;;;;28.65;11.32;;;;;;;;;;5000928;28;20050;-82
2024/03/28 02:49:01;;;;;;;23.15;10.25;;;;;;;;;;5001244;28;20042;-81
2024/03/28 02:51:26;;;;;;;20.13;10.43;;;;;;;;;;5002429;28;20058;-81
2024/03/28 02:53:52;;;;;;;32.72;11.15;;;;;;;;;;5000183;28;20049;-82
2024/03/28 02:56:18;;;;;;;27.45;11.25;;;;;;;;;;4998812;28;20039;-80
2024/03/28 02:58:44;;;;;;;23.30;8.95;;;;;;;;;;4997971;28;20176;-80
2024/03/28 03:01:10;;;;;;;21.60;10.30;;;;;;;;;;5001374;28;20050;-80
2024/03/28 03:03:36;;;;;;;15.63;9.40;;;;;;;;;;4998492;28;20458;-79
2024/03/28 03:06:02;;;;;;;19.60;8.95;;;;;;;;;;4977471;28;20054;-79
2024/03/28 03:08:29;;;;;;;28.20;9.63;;;;;;;;;;4978837;28;20030;-79
2024/03/28 03:10:56;;;;;;;13.85;9.05;;;;;;;;;;4995364;28;20081;-78
2024/03/28 03:13:22;;;;;;;16.35;9.38;;;;;;;;;;4995449;28;20030;-79
2024/03/28 03:15:51;;;;;;;20.52;9.57;;;;;;;;;;4994758;28;20092;-77
2024/03/28 03:18:19;;;;;;;23.35;10.35;;;;;;;;;;4996434;28;20489;-78
2024/03/28 03:20:49;;;;;;;17.50;9.40;;;;;;;;;;5000819;28;20054;-78
2024/03/28 03:23:15;;;;;;;17.02;9.40;;;;;;;;;;5001221;28;20022;-79
2024/03/28 03:25:59;;;;;;;18.63;9.48;;;;;;;;;;5005741;28;20046;-78
2024/03/28 03:36:40;;;;;;;14.30;8.25;;;;;;;;;;4993406;28;20118;-77
2024/03/28 03:39:08;;;;;;;16.27;9.05;;;;;;;;;;4994226;28;20038;-77
2024/03/28 03:41:34;;;;;;;21.05;10.95;;;;;;;;;;4993691;28;20065;-77
2024/03/28 03:44:00;;;;;;;36.78;14.02;;;;;;;;;;4993429;28;20030;-77
2024/03/28 03:46:26;;;;;;;22.20;10.48;;;;;;;;;;4992972;28;20101;-78
2024/03/28 03:48:51;;;;;;;31.45;10.80;;;;;;;;;;4996489;28;20088;-78
2024/03/28 03:51:17;;;;;;;22.70;8.02;;;;;;;;;;4994067;28;20065;-77
2024/03/28 03:53:43;;;;;;;18.88;9.43;;;;;;;;;;4994046;28;20094;-75
2024/03/28 03:56:09;;;;;;;24.10;9.75;;;;;;;;;;4958990;28;20518;-79
2024/03/28 03:58:36;;;;;;;26.63;11.55;;;;;;;;;;4991449;28;20427;-77
2024/03/28 04:01:02;;;;;;;29.02;13.10;;;;;;;;;;4982391;28;20582;-76
2024/03/28 04:03:29;;;;;;;26.50;13.02;;;;;;;;;;4992199;28;20030;-78
2024/03/28 04:05:59;;;;;;;17.92;12.30;;;;;;;;;;4980814;28;20057;-79
2024/03/28 04:08:25;;;;;;;21.30;12.20;;;;;;;;;;4959377;28;20530;-76
2024/03/28 04:10:50;;;;;;;28.85;11.15;;;;;;;;;;4993097;28;20044;-79
2024/03/28 04:13:16;;;;;;;25.65;12.80;;;;;;;;;;4992299;28;20503;-76
2024/03/28 04:15:42;;;;;;;29.80;11.27;;;;;;;;;;4990686;28;20034;-77
2024/03/28 04:18:08;;;;;;;23.58;10.00;;;;;;;;;;4992859;28;20209;-78
2024/03/28 04:20:36;;;;;;;15.35;9.88;;;;;;;;;;4993632;28;20578;-78
2024/03/28 04:23:02;;;;;;;19.05;10.80;;;;;;;;;;4960791;28;20056;-78
2024/03/28 04:25:28;;;;;;;26.35;9.52;;;;;;;;;;4993580;28;20052;-80
2024/03/28 04:27:54;;;;;;;15.30;8.52;;;;;;;;;;5009577;28;20098;-81
2024/03/28 04:30:21;;;;;;;19.13;9.05;;;;;;;;;;5006821;28;20030;-80
2024/03/28 04:32:47;;;;;;;20.45;9.20;;;;;;;;;;4987351;28;20038;-80
2024/03/28 04:35:12;;;;;;;16.05;9.40;;;;;;;;;;5001620;28;20104;-79
2024/03/28 04:37:38;;;;;;;17.67;8.68;;;;;;;;;;4994350;28;20038;-80
2024/03/28 04:40:08;;;;;;;17.23;9.98;;;;;;;;;;4985635;28;20050;-79
2024/03/28 04:42:34;;;;;;;18.47;11.20;;;;;;;;;;4987718;28;20446;-81
2024/03/28 04:45:00;;;;;;;31.52;11.77;;;;;;;;;;4970215;28;20285;-80
2024/03/28 04:47:27;;;;;;;24.27;9.75;;;;;;;;;;5004498;28;20153;-83
2024/03/28 04:49:53;;;;;;;33.47;10.98;;;;;;;;;;4996766;28;20118;-81
2024/03/28 04:52:19;;;;;;;14.88;9.10;;;;;;;;;;5016388;28;20019;-82
2024/03/28 04:54:45;;;;;;;30.52;10.25;;;;;;;;;;5013080;28;20019;-81
2024/03/28 04:57:11;;;;;;;14.27;9.70;;;;;;;;;;5016009;28;20107;-82
2024/03/28 04:59:36;;;;;;;17.80;9.73;;;;;;;;;;5016274;28;20046;-82
2024/03/28 05:02:02;;;;;;;20.20;8.95;;;;;;;;;;5244732;23;20054;-82
2024/03/28 05:04:28;;;;;;;20.73;9.30;;;;;;;;;;5237506;22;20046;-82
2024/03/28 05:06:54;;;;;;;14.18;9.43;;;;;;;;;;5036746;28;20028;-84
2024/03/28 05:09:20;;;;;;;19.73;9.93;;;;;;;;;;5036031;28;20097;-82
2024/03/28 05:11:46;;;;;;;27.52;9.70;;;;;;;;;;5031352;28;20041;-81
2024/03/28 05:14:12;;;;;;;28.88;10.68;;;;;;;;;;5025737;28;20026;-82
2024/03/28 05:16:38;;;;;;;15.98;10.32;;;;;;;;;;5010053;28;20018;-84
2024/03/28 05:19:04;;;;;;;25.10;11.18;;;;;;;;;;5022785;28;20073;-82
2024/03/28 05:21:30;;;;;;;17.70;10.15;;;;;;;;;;5031968;28;20061;-82
2024/03/28 05:23:55;;;;;;;18.90;9.65;;;;;;;;;;5031527;28;20014;-82
2024/03/28 05:26:21;;;;;;;22.65;10.25;;;;;;;;;;5032822;28;20072;-83
2024/03/28 05:37:13;;;;;;;13.10;9.38;;;;;;;;;;5444661;22;20045;-87
2024/03/28 05:42:28;;;;;;;12.60;7.18;;;;;;;;;;4479608;22;20149;-82
2024/03/28 05:44:54;;;;;;;11.35;6.45;;;;;;;;;;4995152;28;20043;-81
2024/03/28 05:47:20;;;;;;;12.70;7.72;;;;;;;;;;5012019;28;20052;-82
2024/03/28 05:49:46;;;;;;;10.73;7.03;;;;;;;;;;5007205;28;20037;-82
2024/03/28 05:52:12;;;;;;;14.10;7.07;;;;;;;;;;5251843;22;20050;-83
2024/03/28 05:54:38;;;;;;;9.23;7.38;;;;;;;;;;5033376;28;20045;-82
2024/03/28 05:57:04;;;;;;;11.57;7.53;;;;;;;;;;5031037;28;20045;-81
2024/03/28 05:59:29;;;;;;;16.88;8.40;;;;;;;;;;5030471;28;20026;-83
2024/03/28 06:01:55;;;;;;;11.02;7.38;;;;;;;;;;5030740;28;20053;-82
2024/03/28 06:04:21;;;;;;;15.68;9.07;;;;;;;;;;5028191;28;20029;-81
2024/03/28 06:06:47;;;;;;;20.08;9.15;;;;;;;;;;5008895;28;20052;-80
2024/03/28 06:09:13;;;;;;;23.60;10.07;;;;;;;;;;5011079;28;20034;-81
2024/03/28 06:11:39;;;;;;;16.13;9.35;;;;;;;;;;5012534;28;20053;-82
2024/03/28 06:14:08;;;;;;;11.55;9.18;;;;;;;;;;5011596;28;20034;-80
2024/03/28 06:16:34;;;;;;;18.80;9.20;;;;;;;;;;5007888;28;20046;-81
2024/03/28 06:19:01;;;;;;;19.48;9.52;;;;;;;;;;5007342;28;20030;-81
2024/03/28 06:21:27;;;;;;;19.67;11.85;;;;;;;;;;5014603;28;20046;-81
2024/03/28 06:23:52;;;;;;;18.17;9.65;;;;;;;;;;5001038;28;20038;-80
2024/03/28 06:26:18;;;;;;;18.45;9.90;;;;;;;;;;4979574;28;20050;-81
2024/03/28 06:28:44;;;;;;;16.00;8.93;;;;;;;;;;4997965;28;20066;-77
2024/03/28 06:31:10;;;;;;;14.20;9.23;;;;;;;;;;5006521;28;20089;-82
2024/03/28 06:33:36;;;;;;;12.52;8.02;;;;;;;;;;5032359;28;20065;-84
2024/03/28 06:36:04;;;;;;;11.10;7.30;;;;;;;;;;5032145;28;20145;-83
2024/03/28 06:38:31;;;;;;;15.68;7.05;;;;;;;;;;5034920;28;20014;-82
2024/03/28 06:41:03;;;;;;;11.63;7.45;;;;;;;;;;5034272;28;20041;-82
2024/03/28 06:43:29;;;;;;;9.75;7.40;;;;;;;;;;5018656;28;20034;-82
2024/03/28 06:45:55;;;;;;;11.57;7.10;;;;;;;;;;5033467;28;20069;-82
2024/03/28 06:48:21;;;;;;;15.98;7.75;;;;;;;;;;5019130;28;20069;-83
2024/03/28 06:50:47;;;;;;;10.68;7.40;;;;;;;;;;5003350;28;20082;-81
2024/03/28 06:53:35;;;;;;;12.05;6.68;;;;;;;;;;5034937;28;20105;-87
2024/03/28 06:56:01;;;;;;;7.75;6.20;;;;;;;;;;5036317;28;20033;-86
2024/03/28 07:01:16;;;;;;;7.00;6.07;;;;;;;;;;5453548;22;19925;-79
2024/03/28 07:03:42;;;;;;;13.30;5.72;;;;;;;;;;4998921;28;20053;-74
2024/03/28 07:06:09;;;;;;;9.00;5.45;;;;;;;;;;5002616;28;20131;-74
2024/03/28 07:08:35;;;;;;;12.85;5.35;;;;;;;;;;5004472;28;20059;-74
2024/03/28 07:11:01;;;;;;;7.20;5.65;;;;;;;;;;4992411;28;20054;-74
2024/03/28 07:13:27;;;;;;;8.18;5.40;;;;;;;;;;5009196;28;20149;-74
2024/03/28 07:15:53;;;;;;;16.73;12.00;;;;;;;;;;4996698;28;20597;-74
2024/03/28 07:18:19;;;;;;;11.73;7.30;;;;;;;;;;4995411;28;20034;-74
2024/03/28 07:20:45;;;;;;;9.77;7.03;;;;;;;;;;5006727;28;20030;-75
2024/03/28 07:23:11;;;;;;;4.80;4.40;;;;;;;;;;5006495;28;20048;-72
2024/03/28 07:25:36;;;;;;;7.53;4.35;;;;;;;;;;5007453;28;20056;-73
2024/03/28 07:28:03;;;;;;;6.75;4.40;;;;;;;;;;5006866;28;20096;-72
2024/03/28 07:30:29;;;;;;;10.23;4.40;;;;;;;;;;5008959;28;20533;-72
2024/03/28 07:32:55;;;;;;;5.05;4.55;;;;;;;;;;5002430;28;20116;-73
2024/03/28 07:35:20;;;;;;;6.32;4.07;;;;;;;;;;5007915;28;20503;-73
2024/03/28 07:37:47;;;;;;;10.10;4.40;;;;;;;;;;5006902;28;20072;-73
2024/03/28 07:40:12;;;;;;;8.65;4.70;;;;;;;;;;5008426;28;20030;-74
2024/03/28 07:42:38;;;;;;;6.95;4.80;;;;;;;;;;5009122;28;20068;-76
2024/03/28 07:45:04;;;;;;;5.25;3.97;;;;;;;;;;5006941;28;20029;-76
2024/03/28 07:47:31;;;;;;;6.35;4.55;;;;;;;;;;4994273;28;20041;-75
2024/03/28 07:49:57;;;;;;;8.20;4.45;;;;;;;;;;5011983;28;20054;-76
2024/03/28 07:52:23;;;;;;;4.50;4.10;;;;;;;;;;5013327;28;20042;-76
2024/03/28 07:54:49;;;;;;;13.60;4.65;;;;;;;;;;5012031;28;20418;-75
2024/03/28 07:57:15;;;;;;;14.88;5.28;;;;;;;;;;5014058;28;20050;-76
2024/03/28 07:59:41;;;;;;;22.20;15.23;;;;;;;;;;4997100;28;20056;-75
2024/03/28 08:02:07;;;;;;;9.35;6.55;;;;;;;;;;5011716;28;20526;-75
2024/03/28 08:04:33;;;;;;;6.60;4.50;;;;;;;;;;5012695;28;20034;-75
2024/03/28 08:06:59;;;;;;;6.72;4.80;;;;;;;;;;5011119;28;20534;-76
2024/03/28 08:09:26;;;;;;;7.63;4.80;;;;;;;;;;5011309;28;20128;-74
2024/03/28 08:11:52;;;;;;;7.10;4.28;;;;;;;;;;5013151;28;20091;-75
2024/03/28 08:14:18;;;;;;;4.95;4.55;;;;;;;;;;4995051;28;20069;-76
2024/03/28 08:16:44;;;;;;;6.95;4.05;;;;;;;;;;5012048;28;20474;-76
2024/03/28 08:19:10;;;;;;;6.22;4.50;;;;;;;;;;4995353;28;20490;-76
2024/03/28 08:21:36;;;;;;;4.78;4.40;;;;;;;;;;5011440;28;20505;-76
2024/03/28 08:24:02;;;;;;;7.60;5.05;;;;;;;;;;5013023;28;20034;-76
2024/03/28 08:26:28;;;;;;;7.30;4.88;;;;;;;;;;5011626;28;20048;-76
2024/03/28 08:28:54;;;;;;;7.68;4.50;;;;;;;;;;5012497;28;20038;-76
2024/03/28 08:31:21;;;;;;;6.93;4.78;;;;;;;;;;5012376;28;20056;-76
2024/03/28 08:33:46;;;;;;;7.25;4.78;;;;;;;;;;5012451;28;20040;-76
2024/03/28 08:36:14;;;;;;;5.88;4.10;;;;;;;;;;5010496;28;20038;-77
2024/03/28 08:38:40;;;;;;;6.35;4.45;;;;;;;;;;5014051;28;20526;-77
2024/03/28 08:41:06;;;;;;;8.80;4.80;;;;;;;;;;5013268;28;20144;-76
2024/03/28 08:43:33;;;;;;;7.60;5.00;;;;;;;;;;5010784;28;20029;-76
2024/03/28 08:45:59;;;;;;;7.63;4.95;;;;;;;;;;5011206;28;20050;-76
2024/03/28 08:48:25;;;;;;;3.88;3.53;;;;;;;;;;5011800;28;20030;-75
2024/03/28 08:50:51;;;;;;;8.73;4.30;;;;;;;;;;5010897;28;20077;-76
2024/03/28 08:53:17;;;;;;;8.20;4.85;;;;;;;;;;4994383;28;20478;-76
2024/03/28 08:55:43;;;;;;;6.80;5.68;;;;;;;;;;5011264;28;20042;-76
2024/03/28 08:58:10;;;;;;;4.45;3.65;;;;;;;;;;4994216;28;20038;-76
2024/03/28 09:00:36;;;;;;;4.45;4.00;;;;;;;;;;5011913;28;20073;-76
2024/03/28 09:03:02;;;;;;;7.45;4.03;;;;;;;;;;5012323;28;20038;-76
2024/03/28 09:05:29;;;;;;;5.63;3.78;;;;;;;;;;5009704;28;20056;-75
2024/03/28 09:07:54;;;;;;;5.05;3.30;;;;;;;;;;5011906;28;20048;-76
2024/03/28 09:10:20;;;;;;;3.55;3.25;;;;;;;;;;5011454;28;20042;-76
2024/03/28 09:12:50;;;;;;;9.60;3.25;;;;;;;;;;5011896;28;20042;-75
2024/03/28 09:15:16;;;;;;;4.05;3.65;;;;;;;;;;5009457;28;20048;-76
2024/03/28 09:17:42;;;;;;;5.28;4.03;;;;;;;;;;5012013;28;20033;-76
2024/03/28 09:20:08;;;;;;;4.50;4.10;;;;;;;;;;5010355;28;20506;-76
2024/03/28 09:22:37;;;;;;;5.75;3.67;;;;;;;;;;5011448;28;20045;-75
2024/03/28 09:25:04;;;;;;;5.97;3.55;;;;;;;;;;5010474;28;20032;-76
2024/03/28 09:27:32;;;;;;;4.78;3.20;;;;;;;;;;5010120;28;20044;-75
2024/03/28 09:29:58;;;;;;;5.15;3.55;;;;;;;;;;5011334;28;20080;-76
2024/03/28 09:32:24;;;;;;;6.10;3.13;;;;;;;;;;5009842;28;20062;-75
2024/03/28 09:34:50;;;;;;;4.20;2.90;;;;;;;;;;5011432;28;20034;-71
2024/03/28 09:37:17;;;;;;;3.00;2.70;;;;;;;;;;5012497;28;20473;-75
2024/03/28 09:39:46;;;;;;;4.10;3.13;;;;;;;;;;4977813;28;20062;-75
2024/03/28 09:42:12;;;;;;;6.10;3.70;;;;;;;;;;5011761;28;20033;-77
2024/03/28 09:44:38;;;;;;;3.25;3.03;;;;;;;;;;5010270;28;20041;-76
2024/03/28 09:47:05;;;;;;;4.78;3.25;;;;;;;;;;5010718;28;20148;-76
2024/03/28 09:49:31;;;;;;;9.07;3.45;;;;;;;;;;4993966;28;20391;-75
2024/03/28 09:51:57;;;;;;;4.97;3.60;;;;;;;;;;5010876;28;20050;-75
2024/03/28 09:54:23;;;;;;;3.60;3.20;;;;;;;;;;5010632;28;20061;-77
2024/03/28 09:56:51;;;;;;;6.38;3.45;;;;;;;;;;5010871;28;20073;-75
2024/03/28 09:59:16;;;;;;;5.75;3.40;;;;;;;;;;5010418;28;20034;-77
2024/03/28 10:01:43;;;;;;;4.03;3.20;;;;;;;;;;5010175;28;20455;-75
2024/03/28 10:04:11;;;;;;;5.25;3.20;;;;;;;;;;5012127;28;20037;-76
2024/03/28 10:06:45;;;;;;;4.97;3.13;;;;;;;;;;5010686;28;20054;-76
2024/03/28 10:09:12;;;;;;;3.30;2.85;;;;;;;;;;5011787;28;20414;-75
2024/03/28 10:11:41;;;;;;;5.15;3.10;;;;;;;;;;5015218;28;20140;-75
2024/03/28 10:14:22;;;;;;;12.82;2.90;;;;;;;;;;5022135;28;20037;-75
2024/03/28 10:16:49;;;;;;;3.40;3.15;;;;;;;;;;5019797;28;20534;-76
2024/03/28 10:19:18;;;;;;;6.28;2.90;;;;;;;;;;5013933;28;20038;-74
2024/03/28 10:21:44;;;;;;;4.75;2.80;;;;;;;;;;5010675;28;20410;-76
2024/03/28 10:24:16;;;;;;;4.13;3.17;;;;;;;;;;5010586;28;20089;-75
2024/03/28 10:26:42;;;;;;;4.35;3.08;;;;;;;;;;5010844;28;20046;-76
2024/03/28 10:29:14;;;;;;;5.28;3.17;;;;;;;;;;5011694;28;20037;-76
2024/03/28 10:31:40;;;;;;;5.30;3.42;;;;;;;;;;5010750;28;20069;-76
2024/03/28 10:34:15;;;;;;;3.95;2.85;;;;;;;;;;5011389;28;20085;-76
2024/03/28 10:36:41;;;;;;;8.43;3.47;;;;;;;;;;5009923;28;20065;-76
2024/03/28 10:39:10;;;;;;;3.53;3.20;;;;;;;;;;5010272;28;20047;-75
2024/03/28 10:41:36;;;;;;;3.78;3.47;;;;;;;;;;5008674;28;20041;-76
2024/03/28 10:44:02;;;;;;;4.55;3.45;;;;;;;;;;5009230;28;20097;-76
2024/03/28 10:46:29;;;;;;;3.45;2.65;;;;;;;;;;5009280;28;20080;-75
2024/03/28 10:48:57;;;;;;;5.15;3.03;;;;;;;;;;5009092;28;20069;-76
2024/03/28 10:51:26;;;;;;;;;;;;;;;;;;5010591;28;20145;-75
2024/03/28 10:53:53;;;;;;;2.80;2.60;;;;;;;;;;5010343;28;19948;-76
2024/03/28 10:56:19;;;;;;;6.90;2.97;;;;;;;;;;5008099;28;20506;-75
2024/03/28 10:58:45;;;;;;;4.10;2.92;;;;;;;;;;5008545;28;20034;-74
2024/03/28 11:01:12;;;;;;;8.25;3.00;;;;;;;;;;4976459;28;20488;-76
2024/03/28 11:03:38;;;;;;;4.45;3.08;;;;;;;;;;5009770;28;20099;-76
2024/03/28 11:06:04;;;;;;;5.38;3.22;;;;;;;;;;5008300;28;20422;-76
2024/03/28 11:08:30;;;;;;;3.28;2.92;;;;;;;;;;5008777;28;20038;-76
2024/03/28 11:10:57;;;;;;;3.22;2.90;;;;;;;;;;5008654;28;20054;-76
2024/03/28 11:13:23;;;;;;;12.80;3.90;;;;;;;;;;4992766;28;20041;-76
2024/03/28 11:16:02;;;;;;;3.83;2.80;;;;;;;;;;5009304;28;20060;-76
2024/03/28 11:18:28;;;;;;;4.35;3.00;;;;;;;;;;5009994;28;20041;-76
2024/03/28 11:20:54;;;;;;;4.30;2.42;;;;;;;;;;5010437;28;20465;-76
2024/03/28 11:23:20;;;;;;;4.00;2.33;;;;;;;;;;5012837;28;20045;-76
2024/03/28 11:25:47;;;;;;;3.67;2.20;;;;;;;;;;5012427;28;20557;-75
2024/03/28 11:28:13;;;;;;;3.13;2.53;;;;;;;;;;5013624;28;20030;-76
2024/03/28 11:30:40;;;;;;;2.70;2.22;;;;;;;;;;5013798;28;20127;-76
2024/03/28 11:33:10;;;;;;;2.38;2.15;;;;;;;;;;5014067;28;20437;-75
2024/03/28 11:35:39;;;;;;;4.47;2.80;;;;;;;;;;5011320;28;20060;-76
2024/03/28 11:38:08;;;;;;;2.47;2.28;;;;;;;;;;5014306;28;20042;-76
2024/03/28 11:40:34;;;;;;;5.03;2.60;;;;;;;;;;5016383;28;20248;-76
2024/03/28 11:43:09;;;;;;;7.28;2.97;;;;;;;;;;5014863;28;20037;-76
2024/03/28 11:45:35;;;;;;;4.68;3.00;;;;;;;;;;5011319;28;20046;-78
2024/03/28 11:48:01;;;;;;;3.60;2.40;;;;;;;;;;5015159;28;20557;-77
2024/03/28 11:50:27;;;;;;;5.18;2.55;;;;;;;;;;5014700;28;20042;-76
2024/03/28 11:52:53;;;;;;;5.20;2.90;;;;;;;;;;5014039;28;20117;-76
2024/03/28 11:55:24;;;;;;;4.32;2.63;;;;;;;;;;5014863;28;20124;-76
2024/03/28 11:57:50;;;;;;;3.35;2.20;;;;;;;;;;5015939;28;20038;-77
2024/03/28 12:00:19;;;;;;;2.65;2.45;;;;;;;;;;5013434;28;20032;-77
2024/03/28 12:02:55;;;;;;;4.82;2.60;;;;;;;;;;4996564;28;20038;-76
2024/03/28 12:05:21;;;;;;;6.60;2.50;;;;;;;;;;4997875;28;20054;-77
2024/03/28 12:07:47;;;;;;;3.40;2.45;;;;;;;;;;4995776;28;20104;-78
2024/03/28 12:10:19;;;;;;;2.55;2.35;;;;;;;;;;4994888;28;20502;-77
2024/03/28 12:12:46;;;;;;;3.13;2.80;;;;;;;;;;4975977;28;20039;-77
2024/03/28 12:15:13;;;;;;;2.42;2.22;;;;;;;;;;4992406;28;20101;-76
2024/03/28 12:17:40;;;;;;;3.42;2.50;;;;;;;;;;4992796;28;20069;-76
2024/03/28 12:20:14;;;;;;;2.67;2.47;;;;;;;;;;4992860;28;20581;-75
2024/03/28 12:22:40;;;;;;;2.53;2.33;;;;;;;;;;4991599;28;20450;-76
2024/03/28 12:25:10;;;;;;;3.65;2.30;;;;;;;;;;4992159;28;20118;-74
2024/03/28 12:27:39;;;;;;;2.70;2.50;;;;;;;;;;4991736;28;20104;-76
2024/03/28 12:30:12;;;;;;;2.58;2.38;;;;;;;;;;4993451;28;20616;-76
2024/03/28 12:32:38;;;;;;;4.93;2.58;;;;;;;;;;4991474;28;20034;-75
2024/03/28 12:35:05;;;;;;;5.30;2.10;;;;;;;;;;4992069;28;20061;-76
2024/03/28 12:37:34;;;;;;;2.72;2.33;;;;;;;;;;4991369;28;20038;-76
2024/03/28 12:40:04;;;;;;;3.72;3.28;;;;;;;;;;4991259;28;20049;-76
2024/03/28 12:42:30;;;;;;;9.98;3.30;;;;;;;;;;4992476;28;20463;-76
2024/03/28 12:44:56;;;;;;;6.25;3.13;;;;;;;;;;4980694;28;20037;-75
2024/03/28 12:47:26;;;;;;;3.80;2.67;;;;;;;;;;4960452;28;20058;-76
2024/03/28 12:49:52;;;;;;;3.05;2.75;;;;;;;;;;4992775;28;20498;-75
2024/03/28 12:52:21;;;;;;;2.80;2.50;;;;;;;;;;4992697;28;20040;-76
2024/03/28 12:54:47;;;;;;;2.75;2.55;;;;;;;;;;4992133;28;20045;-75
2024/03/28 12:57:13;;;;;;;6.70;2.95;;;;;;;;;;4991811;28;20076;-76
2024/03/28 12:59:39;;;;;;;3.85;3.20;;;;;;;;;;4991623;28;20070;-76
2024/03/28 13:02:06;;;;;;;4.70;3.55;;;;;;;;;;5006878;28;20058;-76
2024/03/28 13:04:32;;;;;;;8.80;3.55;;;;;;;;;;5011719;28;20414;-77
2024/03/28 13:06:58;;;;;;;7.38;3.72;;;;;;;;;;4993988;28;20069;-76
2024/03/28 13:09:24;;;;;;;4.30;3.55;;;;;;;;;;4995163;28;20048;-76
2024/03/28 13:11:50;;;;;;;3.75;3.38;;;;;;;;;;5011879;28;20065;-76
2024/03/28 13:14:16;;;;;;;4.32;3.45;;;;;;;;;;5011944;28;20072;-76
2024/03/28 13:16:42;;;;;;;7.53;3.30;;;;;;;;;;5010598;28;20081;-77
2024/03/28 13:19:08;;;;;;;4.47;3.50;;;;;;;;;;5010265;28;20039;-76
2024/03/28 13:21:33;;;;;;;4.93;3.83;;;;;;;;;;5010266;28;20523;-77
2024/03/28 13:23:59;;;;;;;6.32;4.07;;;;;;;;;;5011710;28;20045;-76
2024/03/28 13:26:25;;;;;;;5.95;3.50;;;;;;;;;;5012497;28;20042;-76
2024/03/28 13:28:51;;;;;;;4.75;3.70;;;;;;;;;;5012050;28;20117;-76
2024/03/28 13:31:17;;;;;;;3.78;3.47;;;;;;;;;;5010593;28;20030;-76
2024/03/28 13:33:43;;;;;;;5.03;4.38;;;;;;;;;;5010439;28;20034;-76
2024/03/28 13:36:09;;;;;;;5.88;3.85;;;;;;;;;;5011073;28;20042;-76
2024/03/28 13:38:35;;;;;;;6.70;4.35;;;;;;;;;;5011778;28;20096;-75
2024/03/28 13:41:01;;;;;;;7.13;4.68;;;;;;;;;;5011864;28;20565;-76
2024/03/28 13:43:27;;;;;;;4.70;4.20;;;;;;;;;;5011856;28;20034;-74
2024/03/28 13:45:53;;;;;;;5.32;4.15;;;;;;;;;;5009200;28;20060;-75
2024/03/28 13:48:19;;;;;;;6.60;5.35;;;;;;;;;;5011892;28;20037;-76
2024/03/28 13:50:45;;;;;;;4.78;4.13;;;;;;;;;;5011925;28;20034;-76
2024/03/28 13:53:11;;;;;;;5.70;3.60;;;;;;;;;;5012458;28;20418;-75
2024/03/28 13:55:37;;;;;;;5.53;4.22;;;;;;;;;;5010146;28;20125;-75
2024/03/28 13:58:04;;;;;;;4.90;4.40;;;;;;;;;;5013380;28;20045;-76
2024/03/28 14:00:30;;;;;;;8.23;5.00;;;;;;;;;;5014640;28;20077;-75
2024/03/28 14:02:56;;;;;;;5.63;3.78;;;;;;;;;;5017010;28;20038;-76
2024/03/28 14:05:22;;;;;;;3.25;3.05;;;;;;;;;;5010047;28;20071;-75
2024/03/28 14:07:48;;;;;;;4.13;3.72;;;;;;;;;;5010758;28;20045;-74
2024/03/28 14:10:14;;;;;;;5.45;4.00;;;;;;;;;;5010777;28;20560;-76
2024/03/28 14:12:39;;;;;;;5.50;4.13;;;;;;;;;;5010719;28;20041;-76
2024/03/28 14:15:05;;;;;;;3.92;3.63;;;;;;;;;;5008613;28;20036;-76
2024/03/28 14:17:31;;;;;;;3.95;3.40;;;;;;;;;;5010677;28;20037;-76
2024/03/28 14:19:57;;;;;;;7.47;3.90;;;;;;;;;;4992697;28;20510;-75
2024/03/28 14:22:24;;;;;;;3.53;3.22;;;;;;;;;;5011255;28;20038;-75
2024/03/28 14:24:53;;;;;;;7.15;3.85;;;;;;;;;;5010003;28;20041;-71
2024/03/28 14:27:19;;;;;;;3.97;3.58;;;;;;;;;;5009313;28;20064;-76
2024/03/28 14:29:46;;;;;;;7.30;3.50;;;;;;;;;;5009147;28;20048;-76
2024/03/28 14:32:11;;;;;;;7.20;3.15;;;;;;;;;;5010805;28;20117;-76
2024/03/28 14:34:37;;;;;;;4.75;3.05;;;;;;;;;;5009091;28;20454;-76
2024/03/28 14:37:03;;;;;;;5.90;3.55;;;;;;;;;;5010127;28;20046;-76
2024/03/28 14:39:32;;;;;;;6.40;4.00;;;;;;;;;;5010832;28;20038;-75
2024/03/28 14:41:58;;;;;;;7.13;4.72;;;;;;;;;;5010736;28;20518;-76
2024/03/28 14:44:25;;;;;;;5.13;3.63;;;;;;;;;;5011496;28;20036;-76
2024/03/28 14:46:51;;;;;;;3.90;3.60;;;;;;;;;;5010097;28;20046;-76
2024/03/28 14:49:17;;;;;;;10.32;3.85;;;;;;;;;;5010150;28;20088;-76
2024/03/28 14:51:43;;;;;;;8.75;5.05;;;;;;;;;;5010348;28;20038;-76
2024/03/28 14:54:09;;;;;;;5.80;4.38;;;;;;;;;;5009568;28;20026;-75